Terminal Aerodrome Forecast
Issued by NWS

Home | Current Version | Previous Version | Text Only | Print | Product List | Glossary On
Versions: 1 2 3 4 5 6 7 8 9 10 11 12
000
FTUS43 KGRB 230500
TAFATW
TAF
KATW 230520Z 2306/2406 32008G15KT P6SM BKN040 BKN060
     FM231700 30011KT P6SM SCT050
     FM240100 33004KT P6SM SKC=

USA.gov is the U.S. government's official web portal to all federal, state and local government web resources and services.